createdAt,value
2018-07-30T00:00:43.498Z,22.10
2018-07-30T00:01:43.832Z,22.07
2018-07-30T00:02:43.640Z,22.09
2018-07-30T00:03:43.535Z,22.12
2018-07-30T00:04:43.500Z,22.12
2018-07-30T00:05:43.445Z,22.12
2018-07-30T00:06:43.580Z,22.06
2018-07-30T00:07:43.736Z,22.17
2018-07-30T00:08:44.181Z,22.22
2018-07-30T00:09:43.888Z,22.17
2018-07-30T00:10:43.390Z,22.06
2018-07-30T00:11:43.451Z,22.20
2018-07-30T00:12:43.418Z,22.16
2018-07-30T00:13:43.521Z,22.14
2018-07-30T00:14:43.345Z,22.13
2018-07-30T00:15:43.726Z,22.09
2018-07-30T00:16:43.358Z,22.19
2018-07-30T00:17:43.355Z,22.16
2018-07-30T00:18:43.318Z,22.14
2018-07-30T00:19:43.286Z,22.19
2018-07-30T00:20:43.304Z,22.06
2018-07-30T00:21:43.321Z,22.04
2018-07-30T00:22:43.268Z,22.04
2018-07-30T00:23:43.357Z,22.01
2018-07-30T00:24:43.270Z,22.07
2018-07-30T00:25:43.215Z,22.01
2018-07-30T00:26:43.206Z,22.01
2018-07-30T00:27:43.498Z,21.98
2018-07-30T00:28:43.212Z,21.90
2018-07-30T00:29:43.190Z,21.81
2018-07-30T00:30:43.158Z,21.91
2018-07-30T00:31:43.148Z,21.92
2018-07-30T00:32:43.141Z,21.88
2018-07-30T00:33:43.130Z,21.94
2018-07-30T00:34:43.141Z,21.90
2018-07-30T00:35:43.104Z,21.92
2018-07-30T00:36:43.096Z,21.85
2018-07-30T00:37:43.082Z,21.81
2018-07-30T00:38:43.073Z,21.85
2018-07-30T00:39:43.059Z,21.83
2018-07-30T00:40:43.077Z,21.78
2018-07-30T00:41:43.036Z,21.79
2018-07-30T00:42:43.021Z,21.82
2018-07-30T00:43:43.014Z,21.69
2018-07-30T00:44:42.994Z,21.85
2018-07-30T00:45:42.992Z,21.82
2018-07-30T00:46:42.995Z,21.85
2018-07-30T00:47:42.959Z,21.71
2018-07-30T00:48:42.955Z,21.88
2018-07-30T00:49:42.938Z,21.81
2018-07-30T00:50:42.936Z,21.79
2018-07-30T00:51:42.942Z,21.78
2018-07-30T00:52:42.910Z,21.83
2018-07-30T00:53:42.897Z,21.90
2018-07-30T00:54:42.881Z,21.75
2018-07-30T00:55:42.877Z,21.72
2018-07-30T00:56:42.923Z,21.90
2018-07-30T00:57:42.855Z,21.78
2018-07-30T00:58:42.834Z,21.67
2018-07-30T00:59:42.830Z,21.74
2018-07-30T01:00:42.818Z,21.72
2018-07-30T01:01:42.807Z,21.79
2018-07-30T01:02:42.818Z,21.79
2018-07-30T01:03:42.788Z,21.76
2018-07-30T01:04:42.772Z,21.78
2018-07-30T01:05:42.764Z,21.72
2018-07-30T01:06:42.748Z,21.64
2018-07-30T01:07:42.886Z,21.72
2018-07-30T01:08:42.732Z,21.63
2018-07-30T01:09:42.711Z,21.64
2018-07-30T01:10:42.703Z,21.69
2018-07-30T01:11:42.694Z,21.64
2018-07-30T01:12:42.680Z,21.64
2018-07-30T01:13:42.689Z,21.72
2018-07-30T01:14:42.664Z,21.64
2018-07-30T01:15:42.645Z,21.63
2018-07-30T01:16:42.638Z,21.66
2018-07-30T01:17:42.629Z,21.57
2018-07-30T01:18:42.632Z,21.66
2018-07-30T01:19:42.601Z,21.59
2018-07-30T01:20:42.589Z,21.48
2018-07-30T01:21:42.649Z,21.56
2018-07-30T01:22:42.569Z,21.57
2018-07-30T01:23:42.594Z,21.51
2018-07-30T01:24:42.540Z,21.54
2018-07-30T01:25:42.531Z,21.50
2018-07-30T01:26:42.517Z,21.48
2018-07-30T01:27:42.562Z,21.50
2018-07-30T01:28:42.500Z,21.44
2018-07-30T01:29:42.517Z,21.53
2018-07-30T01:30:42.478Z,21.48
2018-07-30T01:31:42.459Z,21.44
2018-07-30T01:32:42.457Z,21.42
2018-07-30T01:33:42.443Z,21.42
2018-07-30T01:34:42.428Z,21.41
2018-07-30T01:35:42.443Z,21.39
2018-07-30T01:36:42.409Z,21.39
2018-07-30T01:37:42.402Z,21.35
2018-07-30T01:38:42.382Z,21.36
2018-07-30T01:39:42.374Z,21.34
2018-07-30T01:40:42.396Z,21.42
2018-07-30T01:41:42.352Z,21.29
2018-07-30T01:42:42.346Z,21.32
2018-07-30T01:43:42.329Z,21.23
2018-07-30T01:44:42.316Z,21.30
2018-07-30T01:45:42.310Z,21.29
2018-07-30T01:46:42.317Z,21.17
2018-07-30T01:47:42.287Z,21.23
2018-07-30T01:48:42.266Z,21.17
2018-07-30T01:49:42.264Z,21.20
2018-07-30T01:50:42.247Z,21.08
2018-07-30T01:51:42.264Z,21.13
2018-07-30T01:52:42.230Z,20.98
2018-07-30T01:53:42.217Z,21.11
2018-07-30T01:54:42.201Z,20.98
2018-07-30T01:55:42.196Z,20.98
2018-07-30T01:56:42.184Z,20.91
2018-07-30T01:57:42.196Z,20.99
2018-07-30T01:58:42.155Z,20.80
2018-07-30T01:59:42.150Z,20.84
2018-07-30T02:00:42.174Z,20.76
2018-07-30T02:01:42.126Z,20.72
2018-07-30T02:02:42.138Z,20.74
2018-07-30T02:03:42.105Z,20.76
2018-07-30T02:04:42.087Z,20.69
2018-07-30T02:05:42.079Z,20.71
2018-07-30T02:06:42.063Z,20.74
2018-07-30T02:07:42.059Z,20.68
2018-07-30T02:08:42.076Z,20.68
2018-07-30T02:09:42.029Z,20.64
2018-07-30T02:10:42.020Z,20.56
2018-07-30T02:11:42.002Z,20.54
2018-07-30T02:12:41.998Z,20.53
2018-07-30T02:13:41.985Z,20.56
2018-07-30T02:14:42.008Z,20.41
2018-07-30T02:15:41.965Z,20.58
2018-07-30T02:16:41.948Z,20.50
2018-07-30T02:17:41.935Z,20.56
2018-07-30T02:18:41.931Z,20.46
2018-07-30T02:19:41.913Z,20.49
2018-07-30T02:20:41.926Z,20.49
2018-07-30T02:21:41.899Z,20.34
2018-07-30T02:22:41.875Z,20.39
2018-07-30T02:23:41.867Z,20.34
2018-07-30T02:24:41.858Z,20.38
2018-07-30T02:25:41.861Z,20.46
2018-07-30T02:26:41.883Z,20.28
2018-07-30T02:27:41.819Z,20.42
2018-07-30T02:28:41.810Z,20.41
2018-07-30T02:29:41.803Z,20.30
2018-07-30T02:30:41.819Z,20.27
2018-07-30T02:31:41.777Z,20.33
2018-07-30T02:32:41.757Z,20.27
2018-07-30T02:33:41.748Z,20.25
2018-07-30T02:34:41.746Z,20.31
2018-07-30T02:35:41.722Z,20.21
2018-07-30T02:36:41.756Z,20.24
2018-07-30T02:37:41.705Z,20.20
2018-07-30T02:38:41.691Z,20.18
2018-07-30T02:39:41.678Z,20.15
2018-07-30T02:40:41.671Z,20.16
2018-07-30T02:41:41.659Z,20.08
2018-07-30T02:42:41.671Z,20.08
2018-07-30T02:43:41.631Z,20.12
2018-07-30T02:44:41.629Z,20.09
2018-07-30T02:45:41.608Z,20.09
2018-07-30T02:46:41.604Z,19.98
2018-07-30T02:47:41.628Z,20.00
2018-07-30T02:48:41.579Z,20.00
2018-07-30T02:49:41.565Z,19.98
2018-07-30T02:50:41.549Z,19.97
2018-07-30T02:51:41.539Z,19.91
2018-07-30T02:52:41.530Z,19.97
2018-07-30T02:53:41.544Z,20.00
2018-07-30T02:54:41.503Z,19.93
2018-07-30T02:55:41.489Z,20.06
2018-07-30T02:56:41.485Z,19.98
2018-07-30T02:57:41.544Z,19.88
2018-07-30T02:58:41.495Z,19.93
2018-07-30T02:59:41.446Z,19.86
2018-07-30T03:00:41.436Z,19.86
2018-07-30T03:01:41.425Z,19.79
2018-07-30T03:02:41.412Z,19.87
2018-07-30T03:03:41.404Z,19.76
2018-07-30T03:04:41.414Z,19.80
2018-07-30T03:05:41.382Z,19.80
2018-07-30T03:06:41.360Z,19.84
2018-07-30T03:07:41.353Z,19.79
2018-07-30T03:08:41.339Z,19.75
2018-07-30T03:09:41.331Z,19.68
2018-07-30T03:10:41.339Z,19.63
2018-07-30T03:11:41.305Z,19.66
2018-07-30T03:12:41.296Z,19.65
2018-07-30T03:13:41.287Z,19.63
2018-07-30T03:14:41.302Z,19.66
2018-07-30T03:15:41.262Z,19.65
2018-07-30T03:16:41.248Z,19.65
2018-07-30T03:17:41.234Z,19.65
2018-07-30T03:18:41.223Z,19.63
2018-07-30T03:19:41.218Z,19.61
2018-07-30T03:20:41.232Z,19.50
2018-07-30T03:21:41.191Z,19.50
2018-07-30T03:22:41.179Z,19.53
2018-07-30T03:23:41.174Z,19.55
2018-07-30T03:24:41.152Z,19.51
2018-07-30T03:25:41.176Z,19.51
2018-07-30T03:26:41.134Z,19.47
2018-07-30T03:27:41.126Z,19.47
2018-07-30T03:28:41.118Z,19.48
2018-07-30T03:29:41.096Z,19.48
2018-07-30T03:30:41.093Z,19.39
2018-07-30T03:31:41.106Z,19.43
2018-07-30T03:32:41.067Z,19.40
2018-07-30T03:33:41.061Z,19.39
2018-07-30T03:34:41.044Z,19.39
2018-07-30T03:35:41.031Z,19.35
2018-07-30T03:36:41.023Z,19.38
2018-07-30T03:37:41.037Z,19.43
2018-07-30T03:38:40.994Z,19.31
2018-07-30T03:39:40.987Z,19.43
2018-07-30T03:40:40.974Z,19.38
2018-07-30T03:41:40.958Z,19.33
2018-07-30T03:42:40.976Z,19.32
2018-07-30T03:43:40.938Z,19.38
2018-07-30T03:44:40.935Z,19.36
2018-07-30T03:45:40.921Z,19.29
2018-07-30T03:46:40.902Z,19.31
2018-07-30T03:47:40.914Z,19.29
2018-07-30T03:48:40.887Z,19.29
2018-07-30T03:49:40.873Z,19.33
2018-07-30T03:50:40.858Z,19.24
2018-07-30T03:51:40.844Z,19.24
2018-07-30T03:52:40.864Z,19.24
2018-07-30T03:53:40.827Z,19.17
2018-07-30T03:54:40.829Z,19.31
2018-07-30T03:55:40.802Z,19.21
2018-07-30T03:56:40.794Z,19.29
2018-07-30T03:57:40.808Z,19.20
2018-07-30T03:58:40.765Z,19.20
2018-07-30T03:59:40.758Z,19.23
2018-07-30T04:00:40.744Z,19.24
2018-07-30T04:01:40.736Z,19.20
2018-07-30T04:02:40.745Z,19.23
2018-07-30T04:03:40.716Z,19.21
2018-07-30T04:04:40.699Z,19.20
2018-07-30T04:05:40.737Z,19.15
2018-07-30T04:06:40.675Z,19.15
2018-07-30T04:07:40.692Z,19.15
2018-07-30T04:08:40.652Z,19.23
2018-07-30T04:09:40.648Z,19.18
2018-07-30T04:10:40.627Z,19.17
2018-07-30T04:11:40.622Z,19.06
2018-07-30T04:12:40.681Z,19.14
2018-07-30T04:13:40.600Z,19.20
2018-07-30T04:14:40.587Z,19.06
2018-07-30T04:15:40.573Z,19.08
2018-07-30T04:16:40.567Z,19.11
2018-07-30T04:17:40.580Z,19.17
2018-07-30T04:18:40.535Z,19.05
2018-07-30T04:19:40.530Z,19.06
2018-07-30T04:20:40.518Z,19.06
2018-07-30T04:21:40.503Z,18.90
2018-07-30T04:22:40.517Z,18.94
2018-07-30T04:23:40.478Z,18.91
2018-07-30T04:24:40.476Z,18.95
2018-07-30T04:25:40.465Z,18.84
2018-07-30T04:26:40.447Z,18.86
2018-07-30T04:27:40.464Z,18.94
2018-07-30T04:28:40.420Z,18.87
2018-07-30T04:29:40.414Z,18.94
2018-07-30T04:30:40.434Z,18.87
2018-07-30T04:31:40.387Z,18.84
2018-07-30T04:32:40.408Z,18.87
2018-07-30T04:33:40.369Z,18.82
2018-07-30T04:34:40.355Z,18.83
2018-07-30T04:35:40.354Z,18.83
2018-07-30T04:36:40.330Z,18.87
2018-07-30T04:37:40.347Z,18.87
2018-07-30T04:38:40.306Z,18.82
2018-07-30T04:39:40.301Z,18.83
2018-07-30T04:40:40.292Z,18.74
2018-07-30T04:41:40.283Z,18.70
2018-07-30T04:42:40.286Z,18.76
2018-07-30T04:43:40.269Z,18.82
2018-07-30T04:44:40.242Z,18.79
2018-07-30T04:45:40.230Z,18.80
2018-07-30T04:46:40.228Z,18.73
2018-07-30T04:47:40.228Z,18.84
2018-07-30T04:48:40.203Z,18.76
2018-07-30T04:49:40.182Z,18.72
2018-07-30T04:50:40.180Z,18.90
2018-07-30T04:51:40.162Z,18.68
2018-07-30T04:52:40.172Z,18.74
2018-07-30T04:53:40.147Z,18.82
2018-07-30T04:54:40.132Z,18.82
2018-07-30T04:55:40.123Z,18.86
2018-07-30T04:56:40.103Z,18.74
2018-07-30T04:57:40.118Z,18.77
2018-07-30T04:58:40.087Z,18.83
2018-07-30T04:59:40.070Z,18.91
2018-07-30T05:00:40.066Z,18.87
2018-07-30T05:01:40.054Z,18.91
2018-07-30T05:02:40.063Z,18.83
2018-07-30T05:03:40.070Z,18.92
2018-07-30T05:04:40.021Z,18.92
2018-07-30T05:05:40.005Z,18.84
2018-07-30T05:06:39.996Z,18.95
2018-07-30T05:07:40.003Z,19.02
2018-07-30T05:08:39.970Z,19.06
2018-07-30T05:09:39.961Z,19.13
2018-07-30T05:10:39.954Z,19.10
2018-07-30T05:11:39.939Z,19.10
2018-07-30T05:12:39.948Z,19.06
2018-07-30T05:13:39.913Z,19.14
2018-07-30T05:14:39.908Z,19.17
2018-07-30T05:15:39.889Z,19.17
2018-07-30T05:16:39.883Z,19.31
2018-07-30T05:17:39.896Z,19.36
2018-07-30T05:18:39.852Z,19.29
2018-07-30T05:19:39.886Z,19.38
2018-07-30T05:20:39.841Z,19.33
2018-07-30T05:21:39.826Z,19.35
2018-07-30T05:22:39.834Z,19.39
2018-07-30T05:23:39.803Z,19.38
2018-07-30T05:24:39.786Z,19.40
2018-07-30T05:25:39.902Z,19.50
2018-07-30T05:26:39.768Z,19.43
2018-07-30T05:27:39.785Z,19.47
2018-07-30T05:28:39.740Z,19.46
2018-07-30T05:29:39.734Z,19.63
2018-07-30T05:30:39.712Z,19.53
2018-07-30T05:31:39.748Z,19.58
2018-07-30T05:32:39.716Z,19.61
2018-07-30T05:33:39.683Z,19.63
2018-07-30T05:34:39.669Z,19.66
2018-07-30T05:35:39.666Z,19.68
2018-07-30T05:36:39.665Z,19.63
2018-07-30T05:37:39.664Z,19.79
2018-07-30T05:38:39.622Z,19.95
2018-07-30T05:39:39.622Z,19.76
2018-07-30T05:40:39.598Z,19.86
2018-07-30T05:41:39.588Z,19.87
2018-07-30T05:42:39.627Z,19.95
2018-07-30T05:43:39.566Z,19.88
2018-07-30T05:44:39.640Z,20.02
2018-07-30T05:45:39.587Z,20.00
2018-07-30T05:46:39.528Z,19.97
2018-07-30T05:47:39.544Z,19.97
2018-07-30T05:48:39.552Z,20.05
2018-07-30T05:49:39.500Z,20.08
2018-07-30T05:50:39.478Z,20.10
2018-07-30T05:51:39.528Z,20.15
2018-07-30T05:52:39.488Z,20.08
2018-07-30T05:53:39.473Z,20.15
2018-07-30T05:54:39.434Z,20.05
2018-07-30T05:55:39.422Z,20.18
2018-07-30T05:56:39.413Z,20.13
2018-07-30T05:57:39.498Z,20.12
2018-07-30T05:58:39.384Z,20.27
2018-07-30T05:59:39.437Z,20.27
2018-07-30T06:00:39.378Z,20.25
2018-07-30T06:01:39.418Z,20.33
2018-07-30T06:02:39.407Z,20.35
2018-07-30T06:03:39.377Z,20.47
2018-07-30T06:04:39.322Z,20.49
2018-07-30T06:05:39.314Z,20.49
2018-07-30T06:06:39.294Z,20.53
2018-07-30T06:07:39.308Z,20.54
2018-07-30T06:08:39.268Z,20.59
2018-07-30T06:09:39.306Z,20.62
2018-07-30T06:10:39.245Z,20.59
2018-07-30T06:11:40.297Z,20.79
2018-07-30T06:12:39.248Z,20.81
2018-07-30T06:13:39.210Z,20.87
2018-07-30T06:14:39.261Z,20.86
2018-07-30T06:15:39.192Z,20.95
2018-07-30T06:16:39.283Z,20.96
2018-07-30T06:17:39.190Z,21.05
2018-07-30T06:18:39.161Z,21.06
2018-07-30T06:19:39.142Z,21.26
2018-07-30T06:20:39.230Z,21.26
2018-07-30T06:21:39.127Z,21.32
2018-07-30T06:22:39.225Z,21.32
2018-07-30T06:23:39.100Z,21.56
2018-07-30T06:24:39.092Z,21.34
2018-07-30T06:25:39.162Z,21.48
2018-07-30T06:26:39.090Z,21.51
2018-07-30T06:27:39.084Z,21.64
2018-07-30T06:28:39.101Z,21.79
2018-07-30T06:29:39.035Z,21.82
2018-07-30T06:30:39.019Z,21.95
2018-07-30T06:31:39.133Z,22.09
2018-07-30T06:32:39.013Z,22.27
2018-07-30T06:33:39.011Z,22.38
2018-07-30T06:34:39.024Z,22.53
2018-07-30T06:35:39.019Z,22.64
2018-07-30T06:36:39.136Z,22.87
2018-07-30T06:37:38.978Z,22.96
2018-07-30T06:38:38.928Z,23.12
2018-07-30T06:39:38.948Z,23.31
2018-07-30T06:40:38.905Z,23.49
2018-07-30T06:41:38.892Z,23.67
2018-07-30T06:42:39.024Z,23.72
2018-07-30T06:43:38.867Z,24.02
2018-07-30T06:44:38.864Z,24.14
2018-07-30T06:45:38.843Z,24.45
2018-07-30T06:46:38.838Z,24.52
2018-07-30T06:47:38.850Z,24.85
2018-07-30T06:48:38.816Z,24.85
2018-07-30T06:49:38.808Z,25.06
2018-07-30T06:50:38.791Z,25.15
2018-07-30T06:51:38.785Z,25.20
2018-07-30T06:52:38.791Z,25.28
2018-07-30T06:53:38.764Z,25.38
2018-07-30T06:54:38.744Z,25.42
2018-07-30T06:55:38.732Z,25.52
2018-07-30T06:56:38.735Z,25.44
2018-07-30T06:57:38.741Z,25.56
2018-07-30T06:58:38.702Z,25.52
2018-07-30T06:59:38.697Z,25.53
2018-07-30T07:00:38.681Z,25.59
2018-07-30T07:01:38.668Z,25.62
2018-07-30T07:02:38.676Z,25.71
2018-07-30T07:03:38.647Z,25.83
2018-07-30T07:04:38.636Z,25.94
2018-07-30T07:05:38.629Z,26.22
2018-07-30T07:06:38.609Z,26.31
2018-07-30T07:07:38.626Z,26.44
2018-07-30T07:08:38.589Z,26.58
2018-07-30T07:09:38.576Z,26.74
2018-07-30T07:10:38.573Z,26.89
2018-07-30T07:11:38.556Z,26.89
2018-07-30T07:12:38.573Z,27.21
2018-07-30T07:13:38.542Z,27.36
2018-07-30T07:14:38.523Z,27.69
2018-07-30T07:15:38.517Z,27.85
2018-07-30T07:16:38.573Z,28.28
2018-07-30T07:17:38.513Z,28.41
2018-07-30T07:18:38.480Z,28.60
2018-07-30T07:19:38.470Z,28.73
2018-07-30T07:20:38.471Z,28.59
2018-07-30T07:21:38.506Z,28.68
2018-07-30T07:22:38.461Z,28.72
2018-07-30T07:23:38.433Z,28.72
2018-07-30T07:24:38.412Z,28.84
2018-07-30T07:25:38.405Z,28.95
2018-07-30T07:26:38.396Z,28.85
2018-07-30T07:27:38.402Z,28.88
2018-07-30T07:28:38.377Z,28.95
2018-07-30T07:29:38.364Z,29.00
2018-07-30T07:30:38.349Z,28.90
2018-07-30T07:31:38.338Z,29.00
2018-07-30T07:32:38.352Z,28.95
2018-07-30T07:33:38.328Z,29.15
2018-07-30T07:34:38.304Z,29.11
2018-07-30T07:35:38.296Z,29.04
2018-07-30T07:36:38.289Z,29.33
2018-07-30T07:37:38.304Z,29.40
2018-07-30T07:38:38.261Z,29.41
2018-07-30T07:39:38.251Z,29.65
2018-07-30T07:40:38.298Z,29.86
2018-07-30T07:41:38.244Z,29.93
2018-07-30T07:42:38.244Z,29.99
2018-07-30T07:43:38.215Z,29.99
2018-07-30T07:44:38.199Z,29.94
2018-07-30T07:45:38.194Z,29.90
2018-07-30T07:46:38.174Z,29.97
2018-07-30T07:47:38.194Z,30.15
2018-07-30T07:48:38.258Z,30.08
2018-07-30T07:49:38.149Z,30.12
2018-07-30T07:50:38.261Z,30.21
2018-07-30T07:51:38.151Z,30.12
2018-07-30T07:52:38.138Z,30.15
2018-07-30T07:53:38.106Z,30.16
2018-07-30T07:54:38.093Z,30.30
2018-07-30T07:55:38.090Z,30.34
2018-07-30T07:56:38.073Z,30.27
2018-07-30T07:57:38.090Z,30.45
2018-07-30T07:58:38.049Z,30.49
2018-07-30T07:59:38.037Z,30.53
2018-07-30T08:00:38.037Z,30.54
2018-07-30T08:01:38.021Z,30.65
2018-07-30T08:02:38.032Z,30.64
2018-07-30T08:03:38.004Z,30.74
2018-07-30T08:04:37.991Z,30.72
2018-07-30T08:05:37.977Z,30.68
2018-07-30T08:06:37.963Z,30.59
2018-07-30T08:07:37.980Z,30.53
2018-07-30T08:08:37.946Z,30.49
2018-07-30T08:09:37.952Z,30.61
2018-07-30T08:10:37.932Z,30.67
2018-07-30T08:11:37.915Z,30.38
2018-07-30T08:12:37.927Z,30.37
2018-07-30T08:13:37.888Z,30.43
2018-07-30T08:14:37.885Z,30.27
2018-07-30T08:15:37.876Z,30.24
2018-07-30T08:16:37.856Z,30.14
2018-07-30T08:17:37.875Z,30.36
2018-07-30T08:18:37.840Z,30.31
2018-07-30T08:19:37.824Z,30.40
2018-07-30T08:20:37.822Z,30.57
2018-07-30T08:21:37.811Z,30.59
2018-07-30T08:22:37.823Z,30.50
2018-07-30T08:23:37.782Z,30.62
2018-07-30T08:24:37.779Z,30.71
2018-07-30T08:25:37.765Z,30.65
2018-07-30T08:26:37.752Z,30.76
2018-07-30T08:27:37.776Z,30.83
2018-07-30T08:28:37.728Z,30.93
2018-07-30T08:29:37.719Z,31.06
2018-07-30T08:30:37.713Z,31.12
2018-07-30T08:31:37.696Z,31.28
2018-07-30T08:32:37.695Z,31.49
2018-07-30T08:33:37.699Z,31.61
2018-07-30T08:34:37.674Z,31.62
2018-07-30T08:35:37.656Z,31.73
2018-07-30T08:36:37.650Z,31.67
2018-07-30T08:37:37.637Z,31.57
2018-07-30T08:38:37.653Z,31.58
2018-07-30T08:39:37.614Z,31.57
2018-07-30T08:40:37.609Z,31.76
2018-07-30T08:41:37.600Z,31.99
2018-07-30T08:42:37.580Z,32.17
2018-07-30T08:43:37.596Z,32.29
2018-07-30T08:44:37.568Z,32.21
2018-07-30T08:45:37.557Z,32.11
2018-07-30T08:46:37.543Z,32.18
2018-07-30T08:47:37.533Z,32.11
2018-07-30T08:48:37.592Z,32.13
2018-07-30T08:49:37.512Z,32.15
2018-07-30T08:50:37.504Z,32.11
2018-07-30T08:51:37.490Z,31.77
2018-07-30T08:52:37.488Z,31.64
2018-07-30T08:53:37.493Z,31.75
2018-07-30T08:54:37.466Z,31.76
2018-07-30T08:55:37.455Z,31.88
2018-07-30T08:56:37.440Z,32.02
2018-07-30T08:57:37.433Z,32.00
2018-07-30T08:58:37.443Z,32.00
2018-07-30T08:59:37.417Z,32.03
2018-07-30T09:00:37.398Z,31.96
2018-07-30T09:01:37.397Z,31.92
2018-07-30T09:02:37.375Z,31.88
2018-07-30T09:03:37.398Z,31.84
2018-07-30T09:04:37.356Z,31.88
2018-07-30T09:05:37.356Z,32.07
2018-07-30T09:06:37.338Z,32.27
2018-07-30T09:07:37.335Z,32.52
2018-07-30T09:08:37.345Z,32.77
2018-07-30T09:09:37.313Z,33.14
2018-07-30T09:10:37.302Z,33.42
2018-07-30T09:11:37.288Z,33.39
2018-07-30T09:12:37.351Z,33.63
2018-07-30T09:13:37.296Z,33.79
2018-07-30T09:14:37.268Z,33.89
2018-07-30T09:15:37.261Z,34.14
2018-07-30T09:16:37.246Z,34.13
2018-07-30T09:17:37.233Z,34.35
2018-07-30T09:18:37.250Z,34.66
2018-07-30T09:19:37.220Z,34.98
2018-07-30T09:20:37.207Z,35.10
2018-07-30T09:21:37.201Z,35.03
2018-07-30T09:22:37.188Z,34.91
2018-07-30T09:23:37.204Z,34.80
2018-07-30T09:24:37.165Z,34.77
2018-07-30T09:25:37.163Z,34.72
2018-07-30T09:26:37.144Z,34.58
2018-07-30T09:27:37.142Z,34.39
2018-07-30T09:28:37.148Z,34.26
2018-07-30T09:29:37.117Z,34.16
2018-07-30T09:30:37.103Z,33.97
2018-07-30T09:31:37.093Z,33.78
2018-07-30T09:32:37.106Z,33.55
2018-07-30T09:33:37.103Z,33.30
2018-07-30T09:34:37.067Z,33.19
2018-07-30T09:35:37.064Z,33.10
2018-07-30T09:36:37.048Z,33.06
2018-07-30T09:37:37.039Z,32.73
2018-07-30T09:38:37.093Z,32.76
2018-07-30T09:39:37.035Z,32.69
2018-07-30T09:40:37.016Z,32.84
2018-07-30T09:41:37.003Z,32.89
2018-07-30T09:42:36.990Z,33.31
2018-07-30T09:43:37.007Z,33.63
2018-07-30T09:44:37.077Z,33.94
2018-07-30T09:45:36.963Z,34.19
2018-07-30T09:46:36.954Z,34.34
2018-07-30T09:47:36.943Z,34.54
2018-07-30T09:48:36.959Z,34.89
2018-07-30T09:49:36.925Z,35.20
2018-07-30T09:50:36.960Z,35.25
2018-07-30T09:51:36.908Z,35.50
2018-07-30T09:52:36.902Z,35.64
2018-07-30T09:53:36.914Z,35.74
2018-07-30T09:54:36.893Z,36.20
2018-07-30T09:55:36.871Z,36.23
2018-07-30T09:56:36.875Z,36.19
2018-07-30T09:57:36.861Z,36.29
2018-07-30T09:58:36.865Z,36.21
2018-07-30T09:59:36.833Z,36.21
2018-07-30T10:00:36.824Z,36.21
2018-07-30T10:01:36.825Z,36.36
2018-07-30T10:02:36.805Z,36.07
2018-07-30T10:03:36.825Z,36.12
2018-07-30T10:04:36.789Z,35.97
2018-07-30T10:05:36.779Z,35.48
2018-07-30T10:06:36.771Z,35.18
2018-07-30T10:07:36.767Z,35.07
2018-07-30T10:08:36.772Z,35.01
2018-07-30T10:09:36.748Z,35.02
2018-07-30T10:10:36.729Z,35.10
2018-07-30T10:11:36.766Z,35.26
2018-07-30T10:12:36.714Z,35.11
2018-07-30T10:13:36.731Z,35.08
2018-07-30T10:14:36.696Z,35.15
2018-07-30T10:15:36.684Z,35.17
2018-07-30T10:16:36.683Z,35.52
2018-07-30T10:17:36.705Z,35.58
2018-07-30T10:18:36.689Z,35.84
2018-07-30T10:19:36.657Z,35.92
2018-07-30T10:20:36.643Z,35.93
2018-07-30T10:21:36.630Z,35.70
2018-07-30T10:22:36.624Z,35.77
2018-07-30T10:23:36.668Z,35.82
2018-07-30T10:24:36.604Z,36.07
2018-07-30T10:25:36.596Z,36.23
2018-07-30T10:26:36.585Z,36.15
2018-07-30T10:27:36.579Z,36.29
2018-07-30T10:28:36.586Z,36.31
2018-07-30T10:29:36.562Z,36.45
2018-07-30T10:30:36.561Z,36.73
2018-07-30T10:31:36.574Z,36.54
2018-07-30T10:32:36.529Z,36.58
2018-07-30T10:33:36.548Z,36.72
2018-07-30T10:34:36.566Z,36.97
2018-07-30T10:35:36.504Z,37.14
2018-07-30T10:36:36.496Z,37.39
2018-07-30T10:37:36.514Z,37.42
2018-07-30T10:38:36.501Z,37.67
2018-07-30T10:39:36.466Z,37.83
2018-07-30T10:40:36.451Z,37.78
2018-07-30T10:41:36.443Z,37.85
2018-07-30T10:42:36.435Z,38.08
2018-07-30T10:43:36.443Z,38.26
2018-07-30T10:44:36.420Z,38.15
2018-07-30T10:45:36.407Z,38.11
2018-07-30T10:46:36.397Z,38.17
2018-07-30T10:47:36.387Z,38.18
2018-07-30T10:48:36.402Z,38.12
2018-07-30T10:49:36.361Z,37.95
2018-07-30T10:50:36.355Z,37.95
2018-07-30T10:51:36.346Z,38.08
2018-07-30T10:52:36.340Z,38.10
2018-07-30T10:53:36.349Z,38.20
2018-07-30T10:54:36.320Z,38.10
2018-07-30T10:55:36.311Z,38.05
2018-07-30T10:56:36.327Z,38.05
2018-07-30T10:57:36.285Z,37.99
2018-07-30T10:58:36.306Z,37.55
2018-07-30T10:59:36.266Z,37.51
2018-07-30T11:00:36.261Z,37.61
2018-07-30T11:01:36.255Z,37.88
2018-07-30T11:02:36.236Z,38.05
2018-07-30T11:03:36.259Z,38.23
2018-07-30T11:04:36.248Z,38.34
2018-07-30T11:05:36.209Z,38.20
2018-07-30T11:06:36.199Z,37.86
2018-07-30T11:07:36.187Z,37.67
2018-07-30T11:08:36.214Z,37.74
2018-07-30T11:09:36.205Z,37.81
2018-07-30T11:10:36.169Z,37.85
2018-07-30T11:11:36.154Z,37.71
2018-07-30T11:12:36.145Z,37.68
2018-07-30T11:13:36.170Z,37.88
2018-07-30T11:14:36.123Z,37.80
2018-07-30T11:15:36.112Z,37.93
2018-07-30T11:16:36.111Z,38.14
2018-07-30T11:17:36.099Z,38.36
2018-07-30T11:18:36.110Z,38.26
2018-07-30T11:19:36.076Z,38.11
2018-07-30T11:20:36.112Z,38.20
2018-07-30T11:21:36.130Z,38.26
2018-07-30T11:22:36.058Z,38.34
2018-07-30T11:23:36.063Z,37.83
2018-07-30T11:24:36.034Z,37.73
2018-07-30T11:25:36.024Z,38.03
2018-07-30T11:26:36.017Z,38.10
2018-07-30T11:27:36.005Z,38.34
2018-07-30T11:28:36.017Z,38.64
2018-07-30T11:29:35.986Z,38.75
2018-07-30T11:30:35.971Z,39.01
2018-07-30T11:31:35.971Z,39.17
2018-07-30T11:32:35.957Z,39.35
2018-07-30T11:33:36.023Z,39.46
2018-07-30T11:34:35.934Z,39.70
2018-07-30T11:35:35.927Z,39.65
2018-07-30T11:36:35.921Z,39.67
2018-07-30T11:37:35.911Z,39.62
2018-07-30T11:38:35.926Z,39.71
2018-07-30T11:39:35.936Z,39.62
2018-07-30T11:40:35.888Z,39.59
2018-07-30T11:41:35.871Z,39.77
2018-07-30T11:42:35.872Z,39.98
2018-07-30T11:43:35.888Z,40.08
2018-07-30T11:44:35.851Z,39.93
2018-07-30T11:45:35.849Z,39.65
2018-07-30T11:46:35.827Z,39.24
2018-07-30T11:47:35.823Z,38.57
2018-07-30T11:48:35.837Z,38.36
2018-07-30T11:49:35.798Z,38.20
2018-07-30T11:50:35.799Z,38.36
2018-07-30T11:51:35.782Z,38.34
2018-07-30T11:52:35.782Z,38.36
2018-07-30T11:53:35.792Z,38.76
2018-07-30T11:54:35.757Z,38.98
2018-07-30T11:55:35.753Z,39.18
2018-07-30T11:56:35.735Z,39.22
2018-07-30T11:57:35.730Z,39.28
2018-07-30T11:58:35.741Z,39.32
2018-07-30T11:59:35.709Z,39.15
2018-07-30T12:00:35.719Z,39.13
2018-07-30T12:01:35.697Z,39.06
2018-07-30T12:02:35.684Z,39.02
2018-07-30T12:03:35.703Z,38.98
2018-07-30T12:04:35.663Z,38.83
2018-07-30T12:05:35.657Z,38.87
2018-07-30T12:06:35.652Z,39.22
2018-07-30T12:07:35.645Z,39.40
2018-07-30T12:08:35.653Z,39.54
2018-07-30T12:09:35.621Z,39.86
2018-07-30T12:10:35.629Z,40.23
2018-07-30T12:11:35.599Z,40.46
2018-07-30T12:12:35.607Z,40.42
2018-07-30T12:13:35.672Z,40.18
2018-07-30T12:14:35.583Z,39.77
2018-07-30T12:15:35.566Z,39.46
2018-07-30T12:16:35.560Z,39.28
2018-07-30T12:17:35.554Z,39.08
2018-07-30T12:18:35.559Z,38.85
2018-07-30T12:19:35.524Z,38.44
2018-07-30T12:20:35.523Z,38.34
2018-07-30T12:21:35.512Z,38.36
2018-07-30T12:22:35.497Z,38.24
2018-07-30T12:23:35.523Z,38.51
2018-07-30T12:24:35.484Z,38.55
2018-07-30T12:25:35.469Z,38.48
2018-07-30T12:26:35.460Z,38.42
2018-07-30T12:27:35.450Z,38.48
2018-07-30T12:28:35.467Z,38.61
2018-07-30T12:29:35.437Z,38.46
2018-07-30T12:30:35.466Z,38.45
2018-07-30T12:31:35.415Z,38.41
2018-07-30T12:32:35.403Z,38.27
2018-07-30T12:33:35.421Z,38.17
2018-07-30T12:34:35.383Z,38.08
2018-07-30T12:35:35.378Z,38.12
2018-07-30T12:36:35.423Z,38.14
2018-07-30T12:37:35.359Z,37.85
2018-07-30T12:38:35.364Z,37.64
2018-07-30T12:39:35.340Z,37.66
2018-07-30T12:40:35.321Z,37.59
2018-07-30T12:41:35.326Z,37.66
2018-07-30T12:42:35.302Z,37.68
2018-07-30T12:43:35.322Z,37.73
2018-07-30T12:44:35.285Z,37.33
2018-07-30T12:45:35.278Z,37.24
2018-07-30T12:46:35.310Z,36.87
2018-07-30T12:47:35.255Z,36.97
2018-07-30T12:48:35.275Z,36.98
2018-07-30T12:49:35.242Z,36.75
2018-07-30T12:50:35.266Z,36.56
2018-07-30T12:51:35.219Z,36.61
2018-07-30T12:52:35.228Z,36.60